Time;durP1;ratioP1;P1;durP2;ratioP2;P2;SDS_P1;SDS_P2;PMS_P1;PMS_P2;Temp;Humidity;BMP_temperature;BMP_pressure;BME280_temperature;BME280_humidity;BME280_pressure;Samples;Min_cycle;Max_cycle;Signal;HPM_P1;HPM_P2
2023/02/28 00:01:27;;;;;;;16.90;6.00;;;;;;;;;;5114823;28;20221;-83
2023/02/28 00:03:54;;;;;;;16.65;5.95;;;;;;;;;;5132582;28;20047;-84
2023/02/28 00:06:22;;;;;;;11.18;5.68;;;;;;;;;;5121845;28;20071;-81
2023/02/28 00:08:48;;;;;;;13.00;5.93;;;;;;;;;;5081039;28;20046;-81
2023/02/28 00:11:15;;;;;;;14.00;5.45;;;;;;;;;;5113702;28;20469;-81
2023/02/28 00:13:46;;;;;;;17.70;5.40;;;;;;;;;;5113074;28;20043;-80
2023/02/28 00:16:13;;;;;;;12.50;5.05;;;;;;;;;;5094704;28;20071;-80
2023/02/28 00:18:40;;;;;;;13.20;5.05;;;;;;;;;;5114742;28;20124;-81
2023/02/28 00:21:07;;;;;;;11.10;5.20;;;;;;;;;;5117514;28;20046;-81
2023/02/28 00:23:34;;;;;;;11.93;5.30;;;;;;;;;;5099238;28;20062;-81
2023/02/28 00:26:01;;;;;;;11.30;4.75;;;;;;;;;;5114022;28;20039;-81
2023/02/28 00:28:29;;;;;;;9.82;4.85;;;;;;;;;;5075583;28;20238;-81
2023/02/28 00:30:59;;;;;;;9.60;4.57;;;;;;;;;;5093099;28;20044;-81
2023/02/28 00:33:27;;;;;;;11.00;4.70;;;;;;;;;;5112292;28;20039;-80
2023/02/28 00:36:04;;;;;;;12.30;5.03;;;;;;;;;;5085441;28;20109;-80
2023/02/28 00:38:31;;;;;;;11.85;4.85;;;;;;;;;;5111393;28;20483;-82
2023/02/28 00:41:04;;;;;;;10.95;4.70;;;;;;;;;;5112331;28;20130;-82
2023/02/28 00:43:31;;;;;;;10.20;4.68;;;;;;;;;;5109349;28;20039;-82
2023/02/28 00:45:58;;;;;;;8.45;4.57;;;;;;;;;;5092844;28;20031;-82
2023/02/28 00:48:24;;;;;;;9.18;4.60;;;;;;;;;;5092871;28;20202;-80
2023/02/28 00:50:51;;;;;;;9.85;4.40;;;;;;;;;;5094076;28;20097;-83
2023/02/28 00:53:17;;;;;;;9.98;4.63;;;;;;;;;;5093098;28;20076;-82
2023/02/28 00:55:45;;;;;;;10.02;4.75;;;;;;;;;;5093081;28;20048;-82
2023/02/28 00:58:11;;;;;;;10.05;4.35;;;;;;;;;;5110675;28;20512;-83
2023/02/28 01:00:38;;;;;;;12.25;4.18;;;;;;;;;;5107899;28;20042;-82
2023/02/28 01:03:04;;;;;;;13.30;4.32;;;;;;;;;;5081354;28;20036;-82
2023/02/28 01:05:31;;;;;;;8.35;4.10;;;;;;;;;;5092366;28;20484;-81
2023/02/28 01:07:58;;;;;;;10.75;4.30;;;;;;;;;;5092178;28;20059;-82
2023/02/28 01:10:25;;;;;;;7.30;3.70;;;;;;;;;;5074414;28;20097;-83
2023/02/28 01:12:51;;;;;;;9.68;4.07;;;;;;;;;;5073341;28;20325;-83
2023/02/28 01:15:18;;;;;;;9.57;4.25;;;;;;;;;;5092444;28;20055;-82
2023/02/28 01:17:44;;;;;;;8.98;4.00;;;;;;;;;;5058092;28;20052;-83
2023/02/28 01:20:11;;;;;;;10.38;5.00;;;;;;;;;;5098211;28;20424;-80
2023/02/28 01:22:38;;;;;;;10.23;4.35;;;;;;;;;;5106092;28;20044;-80
2023/02/28 01:25:04;;;;;;;7.25;3.90;;;;;;;;;;5105826;28;20058;-83
2023/02/28 01:27:31;;;;;;;11.68;4.90;;;;;;;;;;5070514;28;20093;-79
2023/02/28 01:29:58;;;;;;;9.73;4.30;;;;;;;;;;5086495;28;20070;-81
2023/02/28 01:32:24;;;;;;;8.73;4.32;;;;;;;;;;5084415;28;20028;-82
2023/02/28 01:34:51;;;;;;;10.20;4.35;;;;;;;;;;5091883;28;20032;-81
2023/02/28 01:37:17;;;;;;;10.57;4.32;;;;;;;;;;5074243;28;20134;-81
2023/02/28 01:39:44;;;;;;;11.05;4.32;;;;;;;;;;5094813;28;20052;-80
2023/02/28 01:42:11;;;;;;;9.60;4.10;;;;;;;;;;5075595;28;20123;-82
2023/02/28 01:44:56;;;;;;;10.10;4.53;;;;;;;;;;5093179;28;20108;-82
2023/02/28 01:47:25;;;;;;;9.95;4.22;;;;;;;;;;5060930;28;20051;-83
2023/02/28 01:49:52;;;;;;;8.95;4.20;;;;;;;;;;5097232;28;20040;-82
2023/02/28 01:52:19;;;;;;;11.90;4.53;;;;;;;;;;5096712;28;20055;-82
2023/02/28 01:54:48;;;;;;;9.60;4.20;;;;;;;;;;5079134;28;20043;-81
2023/02/28 01:57:16;;;;;;;9.55;4.43;;;;;;;;;;5095928;28;20063;-81
2023/02/28 01:59:46;;;;;;;10.80;4.70;;;;;;;;;;5079230;28;20060;-82
2023/02/28 02:02:13;;;;;;;8.07;3.78;;;;;;;;;;5062452;28;20067;-82
2023/02/28 02:04:49;;;;;;;11.73;3.95;;;;;;;;;;5078725;28;20118;-83
2023/02/28 02:07:17;;;;;;;11.85;4.57;;;;;;;;;;5075617;28;20055;-79
2023/02/28 02:09:45;;;;;;;8.38;3.80;;;;;;;;;;5079466;28;20056;-80
2023/02/28 02:12:33;;;;;;;9.95;4.40;;;;;;;;;;5078488;28;20051;-82
2023/02/28 02:15:04;;;;;;;9.80;4.10;;;;;;;;;;5059212;28;20057;-82
2023/02/28 02:17:35;;;;;;;10.57;4.10;;;;;;;;;;5094866;28;20043;-80
2023/02/28 02:20:03;;;;;;;9.52;4.60;;;;;;;;;;5078933;28;20428;-83
2023/02/28 02:22:39;;;;;;;7.93;4.10;;;;;;;;;;5061855;28;20051;-82
2023/02/28 02:25:18;;;;;;;13.25;4.97;;;;;;;;;;5096283;28;20261;-80
2023/02/28 02:27:44;;;;;;;14.32;4.95;;;;;;;;;;5095895;28;20093;-80
2023/02/28 02:30:23;;;;;;;10.82;4.40;;;;;;;;;;5080645;28;20079;-81
2023/02/28 02:32:54;;;;;;;9.98;4.43;;;;;;;;;;5079316;28;20114;-80
2023/02/28 02:35:28;;;;;;;10.10;4.30;;;;;;;;;;5094264;28;20040;-80
2023/02/28 02:37:57;;;;;;;11.07;4.38;;;;;;;;;;5058440;28;20121;-81
2023/02/28 02:40:29;;;;;;;11.60;4.60;;;;;;;;;;5061262;28;20055;-81
2023/02/28 02:43:03;;;;;;;10.30;4.35;;;;;;;;;;5055661;28;20516;-82
2023/02/28 02:45:35;;;;;;;10.07;4.38;;;;;;;;;;5074930;28;20103;-82
2023/02/28 02:48:04;;;;;;;8.77;4.40;;;;;;;;;;5057324;28;20044;-82
2023/02/28 02:50:34;;;;;;;10.60;4.78;;;;;;;;;;5057033;28;20104;-80
2023/02/28 02:53:01;;;;;;;12.95;4.85;;;;;;;;;;5075498;28;20037;-82
2023/02/28 02:55:31;;;;;;;11.05;4.60;;;;;;;;;;5057575;28;20059;-81
2023/02/28 02:58:02;;;;;;;11.48;4.38;;;;;;;;;;5040835;28;20051;-82
2023/02/28 03:00:41;;;;;;;8.32;4.82;;;;;;;;;;5075732;28;20041;-82
2023/02/28 03:03:10;;;;;;;9.63;4.15;;;;;;;;;;5056438;28;20536;-82
2023/02/28 03:05:49;;;;;;;11.85;4.75;;;;;;;;;;5076885;28;20102;-82
2023/02/28 03:08:16;;;;;;;14.25;4.70;;;;;;;;;;5075674;28;20045;-82
2023/02/28 03:10:46;;;;;;;11.15;5.60;;;;;;;;;;5057415;28;20441;-83
2023/02/28 03:13:35;;;;;;;12.55;5.38;;;;;;;;;;5055237;28;20087;-82
2023/02/28 03:16:19;;;;;;;8.77;4.70;;;;;;;;;;5056549;28;20476;-80
2023/02/28 03:18:58;;;;;;;10.90;5.23;;;;;;;;;;5074519;28;20048;-83
2023/02/28 03:21:27;;;;;;;11.70;4.97;;;;;;;;;;5074647;28;20494;-81
2023/02/28 03:24:07;;;;;;;13.10;4.75;;;;;;;;;;5073455;28;20102;-81
2023/02/28 03:26:36;;;;;;;8.88;4.97;;;;;;;;;;5056155;28;20385;-81
2023/02/28 03:29:03;;;;;;;12.52;5.30;;;;;;;;;;5073399;28;20040;-83
2023/02/28 03:31:44;;;;;;;11.18;5.03;;;;;;;;;;5056474;28;20500;-82
2023/02/28 03:34:19;;;;;;;13.25;5.65;;;;;;;;;;5073856;28;20104;-82
2023/02/28 03:36:48;;;;;;;17.20;6.03;;;;;;;;;;5055247;28;20353;-82
2023/02/28 03:39:18;;;;;;;11.77;5.43;;;;;;;;;;5058887;28;20036;-82
2023/02/28 03:41:52;;;;;;;13.30;5.80;;;;;;;;;;5078781;28;20096;-81
2023/02/28 03:44:27;;;;;;;11.20;5.10;;;;;;;;;;5072977;28;20040;-82
2023/02/28 03:46:58;;;;;;;11.75;5.30;;;;;;;;;;5055805;28;20131;-82
2023/02/28 03:49:27;;;;;;;16.85;5.57;;;;;;;;;;5073736;28;20043;-82
2023/02/28 03:51:53;;;;;;;15.02;6.43;;;;;;;;;;5055192;28;20214;-82
2023/02/28 03:54:27;;;;;;;13.35;5.63;;;;;;;;;;5072149;28;20040;-83
2023/02/28 03:57:01;;;;;;;14.05;5.95;;;;;;;;;;5072513;28;20497;-83
2023/02/28 03:59:34;;;;;;;12.43;5.20;;;;;;;;;;5056203;28;20063;-81
2023/02/28 04:02:01;;;;;;;15.15;6.18;;;;;;;;;;5058409;28;20041;-81
2023/02/28 04:04:28;;;;;;;14.43;6.03;;;;;;;;;;5056975;28;20043;-81
2023/02/28 04:07:01;;;;;;;14.48;6.35;;;;;;;;;;5076365;28;20071;-83
2023/02/28 04:09:28;;;;;;;12.68;5.82;;;;;;;;;;5056008;28;20051;-82
2023/02/28 04:11:56;;;;;;;11.02;5.90;;;;;;;;;;5076606;28;20386;-81
2023/02/28 04:14:22;;;;;;;15.90;6.13;;;;;;;;;;5075417;28;20064;-82
2023/02/28 04:16:50;;;;;;;16.50;6.45;;;;;;;;;;5075168;28;20108;-81
2023/02/28 04:19:17;;;;;;;11.95;5.88;;;;;;;;;;5057267;28;20041;-83
2023/02/28 04:21:45;;;;;;;19.48;7.93;;;;;;;;;;5057024;28;20049;-82
2023/02/28 04:24:14;;;;;;;19.75;8.88;;;;;;;;;;5080047;28;20044;-80
2023/02/28 04:26:48;;;;;;;38.63;13.38;;;;;;;;;;5083548;28;20476;-80
2023/02/28 04:29:19;;;;;;;44.58;15.43;;;;;;;;;;5082027;28;20082;-80
2023/02/28 04:31:46;;;;;;;38.72;15.48;;;;;;;;;;5084199;28;20049;-81
2023/02/28 04:34:13;;;;;;;41.10;15.35;;;;;;;;;;5083564;28;20047;-79
2023/02/28 04:36:39;;;;;;;31.05;13.40;;;;;;;;;;5075424;28;20046;-82
2023/02/28 04:39:06;;;;;;;26.52;11.77;;;;;;;;;;5075410;28;20067;-81
2023/02/28 04:41:33;;;;;;;26.05;11.35;;;;;;;;;;5073377;28;20067;-81
2023/02/28 04:44:00;;;;;;;23.58;11.25;;;;;;;;;;5073035;28;20072;-81
2023/02/28 04:46:28;;;;;;;24.05;11.38;;;;;;;;;;5074636;28;20036;-82
2023/02/28 04:48:54;;;;;;;25.65;11.90;;;;;;;;;;5073812;28;20093;-83
2023/02/28 04:51:21;;;;;;;25.85;11.82;;;;;;;;;;5097385;28;20039;-83
2023/02/28 04:53:48;;;;;;;25.65;11.88;;;;;;;;;;5097798;28;20168;-80
2023/02/28 04:56:16;;;;;;;25.55;11.55;;;;;;;;;;5080379;28;20043;-82
2023/02/28 04:58:43;;;;;;;23.70;11.32;;;;;;;;;;5115054;28;20050;-81
2023/02/28 05:01:18;;;;;;;25.17;11.85;;;;;;;;;;5115076;28;20059;-81
2023/02/28 05:03:45;;;;;;;25.13;11.43;;;;;;;;;;5096709;28;20058;-80
2023/02/28 05:06:12;;;;;;;22.55;11.52;;;;;;;;;;5113594;28;20115;-81
2023/02/28 05:08:39;;;;;;;25.75;12.07;;;;;;;;;;5116408;28;20104;-82
2023/02/28 05:11:08;;;;;;;23.00;12.20;;;;;;;;;;5113442;28;20154;-80
2023/02/28 05:13:35;;;;;;;27.27;12.27;;;;;;;;;;5093009;28;20040;-83
2023/02/28 05:16:02;;;;;;;24.55;11.15;;;;;;;;;;5093712;28;20063;-81
2023/02/28 05:18:28;;;;;;;25.77;11.88;;;;;;;;;;5075395;28;20044;-81
2023/02/28 05:20:55;;;;;;;27.40;12.27;;;;;;;;;;5092430;28;20119;-82
2023/02/28 05:23:22;;;;;;;23.92;12.07;;;;;;;;;;5092715;28;20048;-80
2023/02/28 05:25:49;;;;;;;28.38;12.15;;;;;;;;;;5073819;28;20089;-82
2023/02/28 05:28:15;;;;;;;23.50;12.05;;;;;;;;;;5089027;28;20046;-77
2023/02/28 05:30:42;;;;;;;22.80;10.80;;;;;;;;;;5085989;28;20127;-78
2023/02/28 05:33:10;;;;;;;26.23;11.68;;;;;;;;;;5052520;28;20064;-80
2023/02/28 05:35:38;;;;;;;23.33;11.75;;;;;;;;;;5073191;28;20036;-80
2023/02/28 05:38:04;;;;;;;22.08;11.40;;;;;;;;;;5075835;28;20045;-81
2023/02/28 05:40:33;;;;;;;24.48;11.50;;;;;;;;;;5079240;28;20044;-81
2023/02/28 05:43:00;;;;;;;21.83;11.10;;;;;;;;;;5060907;28;20059;-81
2023/02/28 05:45:26;;;;;;;25.70;11.40;;;;;;;;;;5079112;28;20408;-80
2023/02/28 05:47:53;;;;;;;23.38;11.02;;;;;;;;;;5079117;28;20032;-81
2023/02/28 05:50:20;;;;;;;26.35;11.63;;;;;;;;;;5084072;28;20051;-82
2023/02/28 05:52:50;;;;;;;24.20;11.55;;;;;;;;;;5109348;28;20266;-81
2023/02/28 05:55:17;;;;;;;27.38;11.82;;;;;;;;;;5074601;28;20049;-80
2023/02/28 05:57:43;;;;;;;22.88;11.40;;;;;;;;;;5082268;28;20028;-82
2023/02/28 06:00:11;;;;;;;25.05;10.98;;;;;;;;;;5074755;28;20060;-80
2023/02/28 06:02:39;;;;;;;24.92;10.93;;;;;;;;;;5076926;28;20081;-81
2023/02/28 06:05:09;;;;;;;22.63;10.98;;;;;;;;;;5079645;28;20044;-80
2023/02/28 06:07:35;;;;;;;23.73;10.30;;;;;;;;;;5086124;28;20055;-81
2023/02/28 06:10:02;;;;;;;26.10;11.20;;;;;;;;;;5099088;28;20107;-82
2023/02/28 06:12:28;;;;;;;25.33;11.00;;;;;;;;;;5103644;28;20078;-80
2023/02/28 06:14:55;;;;;;;22.85;10.88;;;;;;;;;;5102964;28;20061;-82
2023/02/28 06:17:21;;;;;;;26.10;11.63;;;;;;;;;;5100110;28;20040;-80
2023/02/28 06:19:48;;;;;;;24.80;12.15;;;;;;;;;;5101276;28;20051;-81
2023/02/28 06:22:15;;;;;;;29.83;12.75;;;;;;;;;;5082750;28;20127;-82
2023/02/28 06:24:41;;;;;;;25.05;11.50;;;;;;;;;;5102064;28;20127;-82
2023/02/28 06:27:08;;;;;;;35.00;12.63;;;;;;;;;;5098448;28;20044;-80
2023/02/28 06:29:35;;;;;;;23.73;11.80;;;;;;;;;;5103253;28;20070;-81
2023/02/28 06:32:01;;;;;;;28.33;13.20;;;;;;;;;;5086847;28;20063;-81
2023/02/28 06:34:28;;;;;;;25.88;11.77;;;;;;;;;;5085014;28;20037;-81
2023/02/28 06:36:55;;;;;;;27.83;11.85;;;;;;;;;;5085678;28;20064;-80
2023/02/28 06:39:21;;;;;;;28.35;13.25;;;;;;;;;;5104056;28;20048;-80
2023/02/28 06:41:48;;;;;;;37.75;13.93;;;;;;;;;;5105464;28;20044;-82
2023/02/28 06:44:22;;;;;;;36.35;15.95;;;;;;;;;;5106580;28;20058;-80
2023/02/28 06:46:49;;;;;;;44.17;17.65;;;;;;;;;;5086832;28;20048;-81
2023/02/28 06:49:15;;;;;;;44.95;17.05;;;;;;;;;;5089956;28;20051;-84
2023/02/28 06:51:46;;;;;;;35.58;16.20;;;;;;;;;;5105171;28;20143;-81
2023/02/28 06:54:13;;;;;;;33.97;13.90;;;;;;;;;;5104002;28;20174;-81
2023/02/28 06:56:40;;;;;;;30.42;14.40;;;;;;;;;;5106898;28;20480;-80
2023/02/28 06:59:06;;;;;;;39.35;13.93;;;;;;;;;;5105557;28;20051;-80
2023/02/28 07:01:33;;;;;;;31.27;13.48;;;;;;;;;;5085321;28;20063;-81
2023/02/28 07:03:59;;;;;;;31.60;13.65;;;;;;;;;;5096358;28;20082;-80
2023/02/28 07:06:26;;;;;;;29.17;12.93;;;;;;;;;;5095499;28;20040;-80
2023/02/28 07:08:53;;;;;;;31.50;13.02;;;;;;;;;;5095691;28;20048;-80
2023/02/28 07:11:22;;;;;;;26.30;12.70;;;;;;;;;;5096788;28;20044;-80
2023/02/28 07:13:50;;;;;;;30.83;13.10;;;;;;;;;;5077649;28;20040;-80
2023/02/28 07:16:20;;;;;;;26.30;11.77;;;;;;;;;;5077047;28;20683;-82
2023/02/28 07:18:47;;;;;;;25.23;11.88;;;;;;;;;;5095982;28;20172;-80
2023/02/28 07:21:14;;;;;;;24.95;11.77;;;;;;;;;;5078424;28;20291;-81
2023/02/28 07:23:41;;;;;;;26.52;11.63;;;;;;;;;;5060740;28;20101;-82
2023/02/28 07:26:14;;;;;;;27.35;12.20;;;;;;;;;;5076580;28;20058;-81
2023/02/28 07:28:42;;;;;;;28.48;12.38;;;;;;;;;;5076120;28;20044;-81
2023/02/28 07:31:09;;;;;;;24.83;11.18;;;;;;;;;;5077551;28;20044;-81
2023/02/28 07:33:36;;;;;;;28.73;11.77;;;;;;;;;;5096623;28;20558;-80
2023/02/28 07:36:06;;;;;;;23.98;11.38;;;;;;;;;;5103108;28;20036;-80
2023/02/28 07:38:36;;;;;;;24.40;11.50;;;;;;;;;;5085790;28;20048;-81
2023/02/28 07:41:06;;;;;;;25.42;11.70;;;;;;;;;;5085413;28;20041;-82
2023/02/28 07:43:34;;;;;;;25.58;10.82;;;;;;;;;;5087311;28;20047;-80
2023/02/28 07:46:02;;;;;;;25.13;11.05;;;;;;;;;;5090171;28;20044;-80
2023/02/28 07:48:29;;;;;;;26.00;10.90;;;;;;;;;;5078121;28;20043;-80
2023/02/28 07:50:56;;;;;;;23.10;10.45;;;;;;;;;;5112261;28;20063;-81
2023/02/28 07:53:23;;;;;;;25.40;10.73;;;;;;;;;;5115386;28;20047;-80
2023/02/28 07:55:49;;;;;;;23.95;10.77;;;;;;;;;;5115813;28;20590;-80
2023/02/28 07:58:16;;;;;;;23.83;10.25;;;;;;;;;;5114470;28;20066;-80
2023/02/28 08:00:42;;;;;;;23.98;9.70;;;;;;;;;;5115146;28;20044;-80
2023/02/28 08:03:12;;;;;;;28.10;10.55;;;;;;;;;;5097510;28;20526;-81
2023/02/28 08:05:40;;;;;;;27.30;11.02;;;;;;;;;;5097737;28;20073;-80
2023/02/28 08:08:07;;;;;;;30.58;11.10;;;;;;;;;;5096598;28;20468;-81
2023/02/28 08:10:33;;;;;;;24.02;10.00;;;;;;;;;;5080829;28;20046;-81
2023/02/28 08:13:00;;;;;;;20.20;9.73;;;;;;;;;;5114898;28;20048;-82
2023/02/28 08:15:27;;;;;;;21.48;9.27;;;;;;;;;;5116129;28;20044;-82
2023/02/28 08:17:55;;;;;;;20.63;8.68;;;;;;;;;;5096974;28;20070;-80
2023/02/28 08:20:25;;;;;;;19.88;8.65;;;;;;;;;;5096720;28;20043;-80
2023/02/28 08:22:59;;;;;;;22.25;8.48;;;;;;;;;;5114534;28;20046;-82
2023/02/28 08:25:25;;;;;;;21.33;8.98;;;;;;;;;;5118326;28;20213;-82
2023/02/28 08:27:54;;;;;;;19.40;8.43;;;;;;;;;;5114523;28;20048;-82
2023/02/28 08:30:21;;;;;;;22.55;9.05;;;;;;;;;;5118937;28;20107;-82
2023/02/28 08:32:47;;;;;;;20.08;8.35;;;;;;;;;;5101405;28;20100;-82
2023/02/28 08:35:14;;;;;;;21.38;8.40;;;;;;;;;;5119913;28;20039;-81
2023/02/28 08:37:40;;;;;;;21.98;8.60;;;;;;;;;;5100280;28;20101;-80
2023/02/28 08:40:07;;;;;;;19.25;7.90;;;;;;;;;;5099723;28;20043;-81
2023/02/28 08:42:34;;;;;;;19.77;8.35;;;;;;;;;;5125058;28;20107;-81
2023/02/28 08:45:01;;;;;;;16.40;8.10;;;;;;;;;;5130677;28;20050;-82
2023/02/28 08:47:28;;;;;;;20.40;7.70;;;;;;;;;;5125400;28;20360;-81
2023/02/28 08:49:54;;;;;;;17.65;7.43;;;;;;;;;;5118551;28;20130;-82
2023/02/28 08:52:21;;;;;;;21.67;8.05;;;;;;;;;;5120522;28;20047;-81
2023/02/28 08:54:48;;;;;;;20.95;7.13;;;;;;;;;;5116354;28;20054;-82
2023/02/28 08:57:15;;;;;;;19.48;7.43;;;;;;;;;;5094887;28;20465;-82
2023/02/28 08:59:42;;;;;;;19.02;7.35;;;;;;;;;;5114618;28;20059;-81
2023/02/28 09:02:11;;;;;;;14.00;7.13;;;;;;;;;;5098151;28;20104;-81
2023/02/28 09:04:38;;;;;;;15.68;7.55;;;;;;;;;;5115287;28;20040;-82
2023/02/28 09:07:05;;;;;;;15.90;7.38;;;;;;;;;;5114829;28;20058;-81
2023/02/28 09:09:31;;;;;;;16.42;7.07;;;;;;;;;;5113947;28;20044;-81
2023/02/28 09:11:58;;;;;;;18.30;6.78;;;;;;;;;;5114130;28;20496;-81
2023/02/28 09:14:24;;;;;;;19.52;7.05;;;;;;;;;;5113268;28;20051;-80
2023/02/28 09:16:51;;;;;;;15.10;7.03;;;;;;;;;;5094819;28;20050;-82
2023/02/28 09:19:18;;;;;;;16.08;6.80;;;;;;;;;;5114315;28;20043;-79
2023/02/28 09:21:45;;;;;;;12.82;6.65;;;;;;;;;;5096845;28;20051;-80
2023/02/28 09:24:14;;;;;;;18.42;7.00;;;;;;;;;;5114691;28;20142;-81
2023/02/28 09:26:40;;;;;;;16.75;6.47;;;;;;;;;;5095799;28;20389;-81
2023/02/28 09:29:17;;;;;;;18.08;7.03;;;;;;;;;;5113517;28;20047;-81
2023/02/28 09:31:44;;;;;;;14.27;6.13;;;;;;;;;;5114702;28;20414;-80
2023/02/28 09:34:10;;;;;;;15.57;5.38;;;;;;;;;;5114966;28;20047;-81
2023/02/28 09:36:37;;;;;;;14.00;5.82;;;;;;;;;;5095320;28;20044;-80
2023/02/28 09:39:12;;;;;;;13.75;5.70;;;;;;;;;;5095517;28;20126;-81
2023/02/28 09:41:47;;;;;;;15.95;5.90;;;;;;;;;;5095395;28;20043;-80
2023/02/28 09:44:20;;;;;;;12.07;5.75;;;;;;;;;;5112402;28;20043;-80
2023/02/28 09:46:49;;;;;;;12.18;6.07;;;;;;;;;;5114083;28;20056;-80
2023/02/28 09:49:18;;;;;;;11.90;5.93;;;;;;;;;;5111388;28;20048;-83
2023/02/28 09:51:48;;;;;;;18.85;6.75;;;;;;;;;;5075624;28;20056;-80
2023/02/28 09:54:18;;;;;;;13.80;5.22;;;;;;;;;;5092651;28;20067;-80
2023/02/28 09:56:48;;;;;;;13.13;5.53;;;;;;;;;;5093669;28;20050;-81
2023/02/28 09:59:25;;;;;;;12.75;5.57;;;;;;;;;;5075240;28;20330;-80
2023/02/28 10:01:54;;;;;;;10.55;5.13;;;;;;;;;;5093843;28;20048;-81
2023/02/28 10:04:40;;;;;;;10.43;5.13;;;;;;;;;;5075624;28;20051;-80
2023/02/28 10:07:18;;;;;;;12.48;5.07;;;;;;;;;;5093344;28;20515;-82
2023/02/28 10:09:46;;;;;;;11.35;5.13;;;;;;;;;;5093048;28;20044;-81
2023/02/28 10:12:13;;;;;;;13.15;5.25;;;;;;;;;;5095593;28;20105;-81
2023/02/28 10:14:44;;;;;;;11.05;5.20;;;;;;;;;;5096209;28;20040;-81
2023/02/28 10:17:13;;;;;;;16.35;5.85;;;;;;;;;;5096822;28;20130;-81
2023/02/28 10:19:48;;;;;;;10.55;5.00;;;;;;;;;;5078543;28;20127;-81
2023/02/28 10:22:21;;;;;;;14.75;6.13;;;;;;;;;;5078917;28;20044;-83
2023/02/28 10:24:51;;;;;;;12.07;5.30;;;;;;;;;;5086610;28;20060;-80
2023/02/28 10:27:22;;;;;;;13.35;5.50;;;;;;;;;;5110769;28;20059;-83
2023/02/28 10:29:50;;;;;;;11.38;4.93;;;;;;;;;;5111728;28;20081;-81
2023/02/28 10:32:18;;;;;;;15.70;5.40;;;;;;;;;;5112122;28;20044;-80
2023/02/28 10:34:50;;;;;;;11.38;5.45;;;;;;;;;;5102370;28;20078;-81
2023/02/28 10:37:17;;;;;;;12.13;5.50;;;;;;;;;;5094675;28;20492;-82
2023/02/28 10:39:45;;;;;;;10.43;5.18;;;;;;;;;;5094584;28;20134;-81
2023/02/28 10:42:20;;;;;;;11.25;5.00;;;;;;;;;;5094482;28;20115;-81
2023/02/28 10:44:46;;;;;;;10.63;4.72;;;;;;;;;;5075602;28;20054;-82
2023/02/28 10:47:17;;;;;;;11.75;5.03;;;;;;;;;;5093526;28;20409;-82
2023/02/28 10:49:47;;;;;;;12.05;6.05;;;;;;;;;;5081747;28;20055;-80
2023/02/28 10:52:31;;;;;;;11.27;5.60;;;;;;;;;;5118556;28;20051;-82
2023/02/28 10:55:13;;;;;;;9.82;4.40;;;;;;;;;;5103989;28;20048;-83
2023/02/28 10:57:40;;;;;;;11.70;5.20;;;;;;;;;;5103207;28;20059;-83
2023/02/28 11:00:13;;;;;;;8.48;4.78;;;;;;;;;;5124129;28;20043;-81
2023/02/28 11:02:44;;;;;;;13.52;5.50;;;;;;;;;;5121927;28;20099;-82
2023/02/28 11:05:23;;;;;;;10.18;5.30;;;;;;;;;;5095794;28;20043;-81
2023/02/28 11:07:54;;;;;;;10.48;5.47;;;;;;;;;;5112925;28;20096;-80
2023/02/28 11:10:23;;;;;;;12.27;6.45;;;;;;;;;;5113251;28;20502;-81
2023/02/28 11:12:54;;;;;;;11.18;5.70;;;;;;;;;;5111519;28;20067;-82
2023/02/28 11:15:20;;;;;;;13.18;5.40;;;;;;;;;;5118968;28;20078;-82
2023/02/28 11:18:10;;;;;;;10.95;5.40;;;;;;;;;;5101828;28;20048;-82
2023/02/28 11:20:36;;;;;;;10.10;5.10;;;;;;;;;;5100028;28;20110;-81
2023/02/28 11:23:04;;;;;;;12.23;5.30;;;;;;;;;;5099057;28;20058;-83
2023/02/28 11:25:32;;;;;;;9.70;5.07;;;;;;;;;;5122880;28;20435;-83
2023/02/28 11:28:06;;;;;;;10.85;5.60;;;;;;;;;;5104818;28;20443;-83
2023/02/28 11:30:33;;;;;;;11.25;5.60;;;;;;;;;;5099696;28;20134;-84
2023/02/28 11:33:01;;;;;;;10.80;5.78;;;;;;;;;;5113846;28;20131;-82
2023/02/28 11:35:34;;;;;;;11.95;5.03;;;;;;;;;;5113870;28;20052;-83
2023/02/28 11:38:01;;;;;;;11.02;5.80;;;;;;;;;;5112525;28;20048;-81
2023/02/28 11:40:27;;;;;;;11.55;5.57;;;;;;;;;;5112785;28;20039;-82
2023/02/28 11:43:19;;;;;;;9.95;5.15;;;;;;;;;;5112843;28;20046;-83
2023/02/28 11:46:00;;;;;;;10.30;5.10;;;;;;;;;;5095048;28;20070;-82
2023/02/28 11:48:32;;;;;;;9.77;5.32;;;;;;;;;;5111487;28;20044;-81
2023/02/28 11:51:11;;;;;;;12.00;5.72;;;;;;;;;;5094609;28;20043;-79
2023/02/28 11:53:37;;;;;;;13.50;5.30;;;;;;;;;;5090453;28;20512;-81
2023/02/28 11:56:07;;;;;;;10.32;5.47;;;;;;;;;;5091879;28;20113;-80
2023/02/28 11:58:39;;;;;;;10.63;5.50;;;;;;;;;;5071115;28;20040;-80
2023/02/28 12:01:06;;;;;;;11.40;5.80;;;;;;;;;;5072718;28;20158;-79
2023/02/28 12:03:43;;;;;;;10.98;5.30;;;;;;;;;;5073662;28;20150;-80
2023/02/28 12:06:09;;;;;;;9.55;5.68;;;;;;;;;;5091367;28;20093;-80
2023/02/28 12:08:46;;;;;;;11.93;5.25;;;;;;;;;;5089233;28;20089;-79
2023/02/28 12:11:26;;;;;;;11.15;5.65;;;;;;;;;;5073096;28;20070;-83
2023/02/28 12:13:56;;;;;;;10.32;5.53;;;;;;;;;;5089528;28;20101;-80
2023/02/28 12:16:27;;;;;;;11.32;5.68;;;;;;;;;;5091068;28;20042;-80
2023/02/28 12:19:01;;;;;;;10.25;5.38;;;;;;;;;;5091304;28;20063;-81
2023/02/28 12:21:47;;;;;;;12.32;5.93;;;;;;;;;;5091386;28;20070;-81
2023/02/28 12:24:29;;;;;;;10.95;5.55;;;;;;;;;;5071823;28;20047;-81
2023/02/28 12:26:57;;;;;;;11.48;5.50;;;;;;;;;;5091013;28;20036;-82
2023/02/28 12:29:29;;;;;;;10.13;5.43;;;;;;;;;;5089422;28;20040;-80
2023/02/28 12:31:59;;;;;;;11.60;5.80;;;;;;;;;;5091214;28;20048;-82
2023/02/28 12:34:32;;;;;;;10.60;5.22;;;;;;;;;;5072034;28;20458;-82
2023/02/28 12:37:01;;;;;;;13.32;5.72;;;;;;;;;;5090823;28;20423;-80
2023/02/28 12:39:32;;;;;;;9.43;5.20;;;;;;;;;;5091693;28;20091;-80
2023/02/28 12:42:20;;;;;;;12.00;5.75;;;;;;;;;;5089651;28;20048;-82
2023/02/28 12:44:52;;;;;;;10.77;5.55;;;;;;;;;;5091204;28;20052;-80
2023/02/28 12:47:18;;;;;;;14.57;5.95;;;;;;;;;;5090912;28;20044;-82
2023/02/28 12:49:54;;;;;;;10.20;5.68;;;;;;;;;;5098970;28;20514;-82
2023/02/28 12:52:29;;;;;;;12.25;5.38;;;;;;;;;;5093708;28;20092;-82
2023/02/28 12:54:59;;;;;;;10.73;5.82;;;;;;;;;;5111522;28;20134;-81
2023/02/28 12:57:29;;;;;;;9.90;5.57;;;;;;;;;;5110132;28;20484;-81
2023/02/28 13:00:00;;;;;;;13.35;6.88;;;;;;;;;;5094305;28;20135;-80
2023/02/28 13:02:45;;;;;;;12.88;6.10;;;;;;;;;;5091967;28;20063;-80
2023/02/28 13:05:15;;;;;;;10.67;5.43;;;;;;;;;;5110693;28;20147;-79
2023/02/28 13:07:53;;;;;;;10.90;5.72;;;;;;;;;;5090929;28;20780;-81
2023/02/28 13:10:22;;;;;;;10.13;5.90;;;;;;;;;;5110844;28;20043;-81
2023/02/28 13:12:50;;;;;;;12.52;5.70;;;;;;;;;;5113222;28;20418;-81
2023/02/28 13:15:25;;;;;;;10.00;5.60;;;;;;;;;;5112672;28;20518;-82
2023/02/28 13:17:53;;;;;;;9.45;5.35;;;;;;;;;;5092536;28;20048;-83
2023/02/28 13:20:21;;;;;;;10.68;6.22;;;;;;;;;;5111199;28;20047;-82
2023/02/28 13:22:50;;;;;;;10.45;6.20;;;;;;;;;;5092464;28;20055;-80
2023/02/28 13:25:22;;;;;;;12.82;5.95;;;;;;;;;;5110074;28;20157;-80
2023/02/28 13:27:55;;;;;;;10.25;6.00;;;;;;;;;;5108958;28;20036;-81
2023/02/28 13:30:41;;;;;;;11.32;6.32;;;;;;;;;;5092441;28;20062;-81
2023/02/28 13:33:26;;;;;;;14.63;7.47;;;;;;;;;;5111237;28;20114;-83
2023/02/28 13:36:07;;;;;;;13.00;6.53;;;;;;;;;;5092241;28;20420;-81
2023/02/28 13:38:35;;;;;;;13.40;5.80;;;;;;;;;;5110643;28;20044;-83
2023/02/28 13:41:21;;;;;;;11.55;6.53;;;;;;;;;;5111907;28;20079;-83
2023/02/28 13:44:06;;;;;;;12.45;6.65;;;;;;;;;;5092357;28;20074;-81
2023/02/28 13:46:53;;;;;;;11.00;6.07;;;;;;;;;;5099157;28;20180;-82
2023/02/28 13:49:22;;;;;;;11.10;6.13;;;;;;;;;;5093648;28;20052;-81
2023/02/28 13:51:49;;;;;;;11.43;6.57;;;;;;;;;;5097908;28;20055;-82
2023/02/28 13:54:35;;;;;;;12.40;6.93;;;;;;;;;;5096998;28;20446;-82
2023/02/28 13:57:05;;;;;;;11.93;6.88;;;;;;;;;;5095241;28;20052;-81
2023/02/28 13:59:58;;;;;;;10.68;6.35;;;;;;;;;;5096723;28;20052;-81
2023/02/28 14:02:27;;;;;;;10.75;6.38;;;;;;;;;;5035450;28;20206;-81
2023/02/28 14:05:00;;;;;;;14.00;6.60;;;;;;;;;;5081470;28;20048;-81
2023/02/28 14:07:30;;;;;;;15.25;7.30;;;;;;;;;;5097598;28;20324;-81
2023/02/28 14:10:05;;;;;;;13.70;7.60;;;;;;;;;;5096189;28;20147;-81
2023/02/28 14:12:50;;;;;;;14.55;7.40;;;;;;;;;;5091103;28;20358;-81
2023/02/28 14:15:32;;;;;;;18.88;7.80;;;;;;;;;;5075277;28;20089;-82
2023/02/28 14:18:20;;;;;;;15.38;7.75;;;;;;;;;;5082649;28;20565;-80
2023/02/28 14:20:48;;;;;;;19.05;8.07;;;;;;;;;;5071961;28;20101;-81
2023/02/28 14:23:33;;;;;;;16.38;7.80;;;;;;;;;;5099781;28;20435;-81
2023/02/28 14:26:10;;;;;;;16.27;7.57;;;;;;;;;;5104506;28;20051;-85
2023/02/28 14:28:37;;;;;;;19.90;7.93;;;;;;;;;;5093523;28;20047;-83
2023/02/28 14:31:11;;;;;;;20.23;8.18;;;;;;;;;;5093408;28;20500;-79
2023/02/28 14:33:58;;;;;;;20.13;8.77;;;;;;;;;;5073460;28;20483;-82
2023/02/28 14:36:39;;;;;;;16.05;7.60;;;;;;;;;;5073099;28;20048;-82
2023/02/28 14:39:16;;;;;;;20.40;8.70;;;;;;;;;;5092801;28;20055;-81
2023/02/28 14:41:44;;;;;;;14.82;7.65;;;;;;;;;;5075486;28;20048;-83
2023/02/28 14:44:21;;;;;;;16.27;8.57;;;;;;;;;;5056383;28;20162;-83
2023/02/28 14:46:53;;;;;;;15.95;8.13;;;;;;;;;;5072709;28;20048;-81